createdAt,value
2023-03-06T00:00:36.773Z,99438.72
2023-03-06T00:03:39.249Z,99426.25
2023-03-06T00:06:41.964Z,99429.69
2023-03-06T00:09:44.238Z,99438.75
2023-03-06T00:12:46.579Z,99446.81
2023-03-06T00:15:49.746Z,99438.59
2023-03-06T00:18:52.557Z,99440.03
2023-03-06T00:21:55.003Z,99444.66
2023-03-06T00:24:57.442Z,99439.66
2023-03-06T00:27:59.898Z,99436.28
2023-03-06T00:31:02.901Z,99442.31
2023-03-06T00:34:05.320Z,99441.84
2023-03-06T00:37:07.720Z,99438.00
2023-03-06T00:40:15.729Z,99426.66
2023-03-06T00:43:18.073Z,99430.38
2023-03-06T00:46:20.396Z,99438.13
2023-03-06T00:49:22.758Z,99439.50
2023-03-06T00:52:25.191Z,99432.59
2023-03-06T00:55:29.517Z,99407.69
2023-03-06T00:58:31.937Z,99422.69
2023-03-06T01:01:34.295Z,99423.06
2023-03-06T01:04:36.859Z,99421.69
2023-03-06T01:07:39.810Z,99419.72
2023-03-06T01:10:42.189Z,99411.44
2023-03-06T01:13:44.896Z,99410.91
2023-03-06T01:16:48.846Z,99417.13
2023-03-06T01:19:52.753Z,99410.97
2023-03-06T01:22:56.666Z,99404.09
2023-03-06T01:25:59.289Z,99413.88
2023-03-06T01:29:02.080Z,99415.78
2023-03-06T01:32:04.463Z,99404.16
2023-03-06T01:35:08.042Z,99414.63
2023-03-06T01:38:10.346Z,99398.50
2023-03-06T01:41:15.903Z,99389.88
2023-03-06T01:44:18.322Z,99407.28
2023-03-06T01:47:22.484Z,99395.44
2023-03-06T01:50:24.987Z,99405.16
2023-03-06T01:53:27.589Z,99388.75
2023-03-06T01:56:30.352Z,99382.66
2023-03-06T01:59:34.439Z,99395.56
2023-03-06T02:02:37.542Z,99386.34
2023-03-06T02:05:42.250Z,99385.91
2023-03-06T02:08:44.741Z,99393.94
2023-03-06T02:11:47.929Z,99390.28
2023-03-06T02:14:50.912Z,99377.34
2023-03-06T02:17:53.472Z,99392.69
2023-03-06T02:20:58.911Z,99384.06
2023-03-06T02:24:38.482Z,99392.03
2023-03-06T02:27:41.394Z,99396.13
2023-03-06T02:30:45.378Z,99387.81
2023-03-06T02:34:00.102Z,99371.00
2023-03-06T02:37:06.929Z,99386.38
2023-03-06T02:40:12.506Z,99377.97
2023-03-06T02:43:16.436Z,99383.06
2023-03-06T02:46:19.113Z,99365.25
2023-03-06T02:49:21.589Z,99370.56
2023-03-06T02:52:23.985Z,99381.44
2023-03-06T02:55:26.388Z,99383.25
2023-03-06T02:58:30.414Z,99385.09
2023-03-06T03:01:32.896Z,99373.41
2023-03-06T03:04:35.554Z,99382.66
2023-03-06T03:07:38.710Z,99387.22
2023-03-06T03:10:41.276Z,99374.91
2023-03-06T03:13:43.750Z,99377.97
2023-03-06T03:16:52.222Z,99377.00
2023-03-06T03:19:55.091Z,99375.78
2023-03-06T03:22:58.096Z,99375.56
2023-03-06T03:26:19.798Z,99376.38
2023-03-06T03:29:35.278Z,99375.72
2023-03-06T03:32:38.252Z,99372.03
2023-03-06T03:35:40.692Z,99366.72
2023-03-06T03:38:43.079Z,99369.59
2023-03-06T03:41:46.252Z,99373.03
2023-03-06T03:44:49.095Z,99371.56
2023-03-06T03:47:52.600Z,99372.09
2023-03-06T03:50:55.620Z,99364.66
2023-03-06T03:53:59.775Z,99365.28
2023-03-06T03:57:05.640Z,99363.91
2023-03-06T04:00:16.244Z,99365.91
2023-03-06T04:03:41.863Z,99359.56
2023-03-06T04:06:45.716Z,99357.22
2023-03-06T04:09:49.223Z,99360.53
2023-03-06T04:12:51.654Z,99363.19
2023-03-06T04:15:55.528Z,99363.03
2023-03-06T04:18:59.454Z,99359.50
2023-03-06T04:22:02.460Z,99354.66
2023-03-06T04:25:07.482Z,99352.28
2023-03-06T04:28:11.565Z,99301.31
2023-03-06T04:31:14.939Z,99353.91
2023-03-06T04:34:18.286Z,99357.44
2023-03-06T04:37:23.848Z,99361.78
2023-03-06T04:40:30.010Z,99343.34
2023-03-06T04:43:32.572Z,99351.66
2023-03-06T04:46:35.400Z,99347.97
2023-03-06T04:49:37.907Z,99329.09
2023-03-06T04:52:40.682Z,99343.00
2023-03-06T04:55:43.376Z,99340.31
2023-03-06T04:58:45.945Z,99343.00
2023-03-06T05:01:48.473Z,99334.81
2023-03-06T05:04:50.810Z,99335.03
2023-03-06T05:07:53.765Z,99346.25
2023-03-06T05:10:58.059Z,99338.94
2023-03-06T05:14:00.407Z,99347.66
2023-03-06T05:17:02.780Z,99344.44
2023-03-06T05:20:09.836Z,99346.78
2023-03-06T05:23:12.753Z,99345.66
2023-03-06T05:26:15.795Z,99337.91
2023-03-06T05:29:18.141Z,99340.88
2023-03-06T05:32:21.202Z,99342.28
2023-03-06T05:35:24.039Z,99339.25
2023-03-06T05:38:26.620Z,99335.22
2023-03-06T05:41:29.210Z,99328.72
2023-03-06T05:44:35.586Z,99335.75
2023-03-06T05:47:38.190Z,99333.22
2023-03-06T05:50:40.871Z,99339.72
2023-03-06T05:53:43.415Z,99320.50
2023-03-06T05:56:45.817Z,99336.28
2023-03-06T05:59:49.218Z,99338.63
2023-03-06T06:02:51.490Z,99329.91
2023-03-06T06:05:54.026Z,99335.00
2023-03-06T06:08:56.370Z,99334.31
2023-03-06T06:12:01.844Z,99333.16
2023-03-06T06:15:04.845Z,99335.69
2023-03-06T06:18:07.168Z,99334.66
2023-03-06T06:21:11.450Z,99323.22
2023-03-06T06:24:14.661Z,99324.94
2023-03-06T06:27:17.232Z,99327.03
2023-03-06T06:30:20.056Z,99321.72
2023-03-06T06:33:22.427Z,99329.13
2023-03-06T06:36:24.980Z,99318.78
2023-03-06T06:39:27.547Z,99328.66
2023-03-06T06:42:36.308Z,99328.94
2023-03-06T06:45:44.387Z,99333.41
2023-03-06T06:48:49.663Z,99323.59
2023-03-06T06:51:52.423Z,99336.50
2023-03-06T06:54:55.390Z,99331.72
2023-03-06T06:57:58.028Z,99326.78
2023-03-06T07:01:09.151Z,99330.84
2023-03-06T07:04:13.891Z,99330.34
2023-03-06T07:07:16.467Z,99327.09
2023-03-06T07:10:20.721Z,99334.56
2023-03-06T07:13:23.581Z,99336.97
2023-03-06T07:16:26.386Z,99341.06
2023-03-06T07:19:28.941Z,99338.81
2023-03-06T07:22:38.716Z,99306.19
2023-03-06T07:25:51.117Z,99341.81
2023-03-06T07:28:53.931Z,99308.66
2023-03-06T07:31:56.605Z,99334.78
2023-03-06T07:35:18.782Z,99332.28
2023-03-06T07:38:21.694Z,99337.03
2023-03-06T07:41:24.236Z,99337.50
2023-03-06T07:44:27.134Z,99343.06
2023-03-06T07:47:29.492Z,99330.88
2023-03-06T07:50:33.088Z,99345.59
2023-03-06T07:53:35.961Z,99332.47
2023-03-06T07:56:39.010Z,99348.13
2023-03-06T07:59:41.579Z,99332.22
2023-03-06T08:02:44.325Z,99336.84
2023-03-06T08:05:47.009Z,99323.06
2023-03-06T08:08:50.211Z,99333.56
2023-03-06T08:11:53.135Z,99336.41
2023-03-06T08:14:55.546Z,99332.91
2023-03-06T08:17:58.455Z,99307.63
2023-03-06T08:21:05.571Z,99338.81
2023-03-06T08:24:08.671Z,99331.94
2023-03-06T08:27:11.068Z,99298.25
2023-03-06T08:30:14.289Z,99339.06
2023-03-06T08:33:16.819Z,99333.13
2023-03-06T08:36:19.628Z,99330.28
2023-03-06T08:39:23.865Z,99337.84
2023-03-06T08:42:26.261Z,99335.34
2023-03-06T08:45:28.796Z,99333.75
2023-03-06T08:48:31.730Z,99331.94
2023-03-06T08:51:34.204Z,99335.53
2023-03-06T08:54:37.064Z,99334.47
2023-03-06T08:57:39.742Z,99336.41
2023-03-06T09:00:42.246Z,99328.50
2023-03-06T09:03:44.819Z,99322.22
2023-03-06T09:06:47.482Z,99333.06
2023-03-06T09:09:50.130Z,99336.06
2023-03-06T09:12:55.034Z,99322.09
2023-03-06T09:15:57.745Z,99316.84
2023-03-06T09:19:00.277Z,99313.34
2023-03-06T09:22:02.718Z,99330.47
2023-03-06T09:25:06.730Z,99331.78
2023-03-06T09:28:11.620Z,99333.44
2023-03-06T09:31:17.123Z,99330.50
2023-03-06T09:34:19.453Z,99325.25
2023-03-06T09:37:21.875Z,99326.81
2023-03-06T09:40:42.463Z,99318.72
2023-03-06T09:43:48.306Z,99321.91
2023-03-06T09:47:12.250Z,99323.72
2023-03-06T09:50:43.504Z,99317.59
2023-03-06T09:54:00.093Z,99325.00
2023-03-06T09:57:03.670Z,99316.53
2023-03-06T10:00:12.033Z,99315.63
2023-03-06T10:03:27.718Z,99321.53
2023-03-06T10:06:34.047Z,99303.59
2023-03-06T10:10:00.928Z,99318.28
2023-03-06T10:13:07.065Z,99314.84
2023-03-06T10:16:31.281Z,99307.50
2023-03-06T10:19:40.354Z,99306.19
2023-03-06T10:23:01.051Z,99286.81
2023-03-06T10:26:14.210Z,99307.91
2023-03-06T10:29:39.197Z,99310.13
2023-03-06T10:32:58.060Z,99303.44
2023-03-06T10:36:00.791Z,99296.38
2023-03-06T10:39:07.660Z,99299.97
2023-03-06T10:42:10.357Z,99275.06
2023-03-06T10:45:15.449Z,99301.06
2023-03-06T10:48:29.798Z,99299.44
2023-03-06T10:51:32.139Z,99299.28
2023-03-06T10:54:39.497Z,99293.09
2023-03-06T10:57:41.797Z,99291.88
2023-03-06T11:00:44.176Z,99294.00
2023-03-06T11:03:47.788Z,99291.94
2023-03-06T11:07:15.039Z,99295.13
2023-03-06T11:10:19.631Z,99294.41
2023-03-06T11:13:24.257Z,99288.00
2023-03-06T11:16:30.846Z,99295.44
2023-03-06T11:19:34.092Z,99267.41
2023-03-06T11:22:37.069Z,99283.47
2023-03-06T11:25:48.357Z,99289.75
2023-03-06T11:28:59.577Z,99279.66
2023-03-06T11:32:13.255Z,99279.44
2023-03-06T11:35:28.605Z,99267.00
2023-03-06T11:38:40.050Z,99268.22
2023-03-06T11:41:54.397Z,99275.47
2023-03-06T11:45:11.435Z,99268.22
2023-03-06T11:48:17.654Z,99269.94
2023-03-06T11:51:25.993Z,99269.91
2023-03-06T11:54:28.451Z,99262.00
2023-03-06T11:57:36.409Z,99259.28
2023-03-06T12:00:44.684Z,99260.44
2023-03-06T12:03:52.828Z,99260.13
2023-03-06T12:07:01.617Z,99245.13
2023-03-06T12:10:24.839Z,99250.47
2023-03-06T12:13:38.363Z,99254.91
2023-03-06T12:16:47.112Z,99246.28
2023-03-06T12:19:59.457Z,99243.28
2023-03-06T12:23:31.193Z,99247.34
2023-03-06T12:26:43.519Z,99243.88
2023-03-06T12:30:04.720Z,99239.88
2023-03-06T12:33:18.333Z,99234.97
2023-03-06T12:36:29.673Z,99237.75
2023-03-06T12:39:57.557Z,99242.91
2023-03-06T12:43:07.292Z,99236.88
2023-03-06T12:46:16.224Z,99238.50
2023-03-06T12:49:38.704Z,99242.63
2023-03-06T12:52:42.993Z,99238.00
2023-03-06T12:55:49.791Z,99233.56
2023-03-06T12:58:54.786Z,99233.88
2023-03-06T13:02:05.131Z,99230.75
2023-03-06T13:05:34.934Z,99236.38
2023-03-06T13:08:55.415Z,99239.28
2023-03-06T13:11:57.739Z,99234.97
2023-03-06T13:15:01.779Z,99234.25
2023-03-06T13:18:22.266Z,99229.72
2023-03-06T13:21:42.788Z,99225.72
2023-03-06T13:24:45.848Z,99222.25
2023-03-06T13:27:53.978Z,99227.41
2023-03-06T13:30:56.468Z,99204.66
2023-03-06T13:34:37.736Z,99221.16
2023-03-06T13:37:49.770Z,99218.66
2023-03-06T13:40:52.232Z,99220.59
2023-03-06T13:43:59.430Z,99214.13
2023-03-06T13:47:05.453Z,99214.00
2023-03-06T13:50:38.520Z,99219.16
2023-03-06T13:54:17.552Z,99213.84
2023-03-06T13:57:43.928Z,99217.72
2023-03-06T14:01:17.874Z,99214.69
2023-03-06T14:04:44.863Z,99210.03
2023-03-06T14:08:05.121Z,99217.22
2023-03-06T14:11:21.053Z,99215.22
2023-03-06T14:14:33.593Z,99206.75
2023-03-06T14:17:39.331Z,99214.97
2023-03-06T14:20:45.776Z,99218.25
2023-03-06T14:24:01.119Z,99215.31
2023-03-06T14:27:03.857Z,99207.25
2023-03-06T14:30:15.270Z,99210.72
2023-03-06T14:33:51.241Z,99206.41
2023-03-06T14:37:05.735Z,99210.78
2023-03-06T14:40:11.664Z,99202.69
2023-03-06T14:43:27.025Z,99198.00
2023-03-06T14:46:29.865Z,99205.16
2023-03-06T14:49:32.251Z,99194.91
2023-03-06T14:52:34.861Z,99202.47
2023-03-06T14:55:37.230Z,99197.41
2023-03-06T14:58:52.956Z,99206.22
2023-03-06T15:02:01.050Z,99203.28
2023-03-06T15:05:07.479Z,99191.47
2023-03-06T15:08:10.666Z,99207.13
2023-03-06T15:11:13.033Z,99195.38
2023-03-06T15:14:20.011Z,99190.66
2023-03-06T15:17:28.246Z,99205.38
2023-03-06T15:20:36.425Z,99196.91
2023-03-06T15:23:39.935Z,99197.25
2023-03-06T15:26:42.358Z,99195.75
2023-03-06T15:29:45.138Z,99203.31
2023-03-06T15:32:47.761Z,99200.03
2023-03-06T15:35:55.145Z,99202.03
2023-03-06T15:38:58.525Z,99197.75
2023-03-06T15:42:09.390Z,99206.31
2023-03-06T15:45:30.939Z,99202.25
2023-03-06T15:48:36.713Z,99202.63
2023-03-06T15:51:39.174Z,99196.97
2023-03-06T15:54:41.539Z,99203.72
2023-03-06T15:58:04.791Z,99213.22
2023-03-06T16:01:09.055Z,99209.53
2023-03-06T16:04:12.403Z,99209.28
2023-03-06T16:07:15.412Z,99209.53
2023-03-06T16:10:26.629Z,99212.66
2023-03-06T16:13:29.522Z,99201.94
2023-03-06T16:16:37.784Z,99204.44
2023-03-06T16:19:41.019Z,99207.69
2023-03-06T16:22:44.832Z,99194.72
2023-03-06T16:25:49.404Z,99199.41
2023-03-06T16:28:51.795Z,99196.00
2023-03-06T16:31:56.584Z,99192.28
2023-03-06T16:34:58.969Z,99197.75
2023-03-06T16:38:01.301Z,99197.47
2023-03-06T16:41:03.754Z,99201.22
2023-03-06T16:44:07.907Z,99184.75
2023-03-06T16:47:12.099Z,99190.38
2023-03-06T16:50:27.986Z,99193.38
2023-03-06T16:53:30.359Z,99190.13
2023-03-06T16:56:32.616Z,99187.97
2023-03-06T16:59:35.006Z,99193.78
2023-03-06T17:02:39.133Z,99199.00
2023-03-06T17:05:43.990Z,99204.78
2023-03-06T17:08:47.177Z,99200.34
2023-03-06T17:11:49.777Z,99205.53
2023-03-06T17:14:55.089Z,99205.94
2023-03-06T17:17:57.930Z,99200.19
2023-03-06T17:21:00.548Z,99177.41
2023-03-06T17:24:03.869Z,99205.59
2023-03-06T17:27:06.326Z,99204.19
2023-03-06T17:30:09.976Z,99212.63
2023-03-06T17:33:12.330Z,99213.88
2023-03-06T17:36:15.496Z,99210.38
2023-03-06T17:39:17.825Z,99181.53
2023-03-06T17:42:20.264Z,99209.47
2023-03-06T17:45:22.690Z,99214.38
2023-03-06T17:48:25.304Z,99215.53
2023-03-06T17:51:29.767Z,99201.44
2023-03-06T17:54:33.444Z,99215.97
2023-03-06T17:57:36.040Z,99207.06
2023-03-06T18:00:40.142Z,99211.50
2023-03-06T18:03:48.310Z,99214.91
2023-03-06T18:06:50.948Z,99209.81
2023-03-06T18:09:53.228Z,99217.25
2023-03-06T18:12:56.785Z,99216.59
2023-03-06T18:15:59.614Z,99211.94
2023-03-06T18:19:02.297Z,99212.84
2023-03-06T18:22:04.857Z,99211.34
2023-03-06T18:25:07.796Z,99205.16
2023-03-06T18:28:11.285Z,99205.25
2023-03-06T18:31:34.408Z,99214.50
2023-03-06T18:34:37.716Z,99207.84
2023-03-06T18:37:40.482Z,99203.53
2023-03-06T18:40:43.206Z,99207.94
2023-03-06T18:43:45.952Z,99208.56
2023-03-06T18:46:48.358Z,99213.50
2023-03-06T18:49:50.715Z,99203.38
2023-03-06T18:52:52.983Z,99207.47
2023-03-06T18:55:55.608Z,99211.34
2023-03-06T18:59:01.745Z,99209.09
2023-03-06T19:02:04.458Z,99209.34
2023-03-06T19:05:07.263Z,99205.09
2023-03-06T19:08:09.895Z,99204.75
2023-03-06T19:11:17.254Z,99209.78
2023-03-06T19:14:21.426Z,99202.50
2023-03-06T19:17:25.008Z,99202.06
2023-03-06T19:20:27.866Z,99199.56
2023-03-06T19:23:30.300Z,99203.31
2023-03-06T19:26:32.624Z,99204.75
2023-03-06T19:29:35.021Z,99212.50
2023-03-06T19:32:37.883Z,99197.97
2023-03-06T19:35:40.484Z,99205.00
2023-03-06T19:38:43.469Z,99213.50
2023-03-06T19:41:47.771Z,99218.34
2023-03-06T19:44:50.147Z,99207.72
2023-03-06T19:47:55.562Z,99231.53
2023-03-06T19:50:57.862Z,99221.09
2023-03-06T19:54:00.254Z,99222.94
2023-03-06T19:57:02.759Z,99210.69
2023-03-06T20:00:05.892Z,99236.97
2023-03-06T20:03:14.925Z,99240.88
2023-03-06T20:06:19.061Z,99233.25
2023-03-06T20:09:21.991Z,99229.31
2023-03-06T20:12:24.485Z,99236.53
2023-03-06T20:15:28.171Z,99228.72
2023-03-06T20:18:30.468Z,99243.44
2023-03-06T20:21:38.176Z,99240.38
2023-03-06T20:24:40.693Z,99244.09
2023-03-06T20:27:44.494Z,99229.53
2023-03-06T20:30:46.993Z,99238.34
2023-03-06T20:33:51.843Z,99232.81
2023-03-06T20:36:54.215Z,99239.38
2023-03-06T20:39:56.611Z,99249.19
2023-03-06T20:42:59.164Z,99242.50
2023-03-06T20:46:03.524Z,99240.03
2023-03-06T20:49:06.005Z,99243.31
2023-03-06T20:52:08.366Z,99230.22
2023-03-06T20:55:11.004Z,99245.78
2023-03-06T20:58:13.327Z,99218.03
2023-03-06T21:01:23.763Z,99244.66
2023-03-06T21:04:26.281Z,99248.97
2023-03-06T21:07:28.683Z,99239.94
2023-03-06T21:10:31.247Z,99246.72
2023-03-06T21:13:33.559Z,99240.53
2023-03-06T21:16:36.625Z,99236.06
2023-03-06T21:19:39.264Z,99235.41
2023-03-06T21:22:41.583Z,99218.22
2023-03-06T21:25:49.028Z,99236.66
2023-03-06T21:28:51.735Z,99238.50
2023-03-06T21:31:54.245Z,99239.28
2023-03-06T21:34:56.641Z,99224.78
2023-03-06T21:37:58.995Z,99232.16
2023-03-06T21:41:15.321Z,99237.25
2023-03-06T21:44:17.803Z,99243.03
2023-03-06T21:47:20.119Z,99232.34
2023-03-06T21:50:22.885Z,99242.66
2023-03-06T21:53:25.216Z,99240.19
2023-03-06T21:56:28.597Z,99229.31
2023-03-06T21:59:31.338Z,99236.50
2023-03-06T22:02:33.667Z,99228.69
2023-03-06T22:05:35.925Z,99228.47
2023-03-06T22:08:38.344Z,99236.91
2023-03-06T22:11:42.362Z,99225.81
2023-03-06T22:14:44.702Z,99235.88
2023-03-06T22:17:48.656Z,99235.50
2023-03-06T22:20:52.221Z,99214.44
2023-03-06T22:23:59.964Z,99234.94
2023-03-06T22:27:02.298Z,99234.13
2023-03-06T22:30:05.204Z,99231.03
2023-03-06T22:33:07.583Z,99226.78
2023-03-06T22:36:14.868Z,99223.66
2023-03-06T22:39:17.520Z,99223.53
2023-03-06T22:42:19.938Z,99201.88
2023-03-06T22:45:22.217Z,99223.34
2023-03-06T22:48:24.607Z,99224.19
2023-03-06T22:51:28.058Z,99224.63
2023-03-06T22:54:30.469Z,99224.00
2023-03-06T22:57:32.879Z,99219.47
2023-03-06T23:00:35.441Z,99222.19
2023-03-06T23:03:39.313Z,99219.91
2023-03-06T23:06:43.326Z,99224.66
2023-03-06T23:09:45.756Z,99225.03
2023-03-06T23:13:07.166Z,99227.69
2023-03-06T23:16:28.184Z,99223.81
2023-03-06T23:19:50.492Z,99242.66
2023-03-06T23:23:11.815Z,99234.47
2023-03-06T23:26:17.804Z,99223.44
2023-03-06T23:29:20.131Z,99215.84
2023-03-06T23:32:22.525Z,99219.75
2023-03-06T23:35:24.919Z,99210.53
2023-03-06T23:38:27.341Z,99206.41
2023-03-06T23:41:29.710Z,99216.06
2023-03-06T23:44:31.995Z,99214.63
2023-03-06T23:47:34.718Z,99212.97
2023-03-06T23:50:41.199Z,99217.91
2023-03-06T23:53:44.673Z,99217.50
2023-03-06T23:56:46.970Z,99206.03
2023-03-06T23:59:49.349Z,99209.94
